sensor_id;sensor_type;location;lat;lon;timestamp;P1;durP1;ratioP1;P2;durP2;ratioP2
18532;SDS011;9396;51.510;11.934;2023-08-21T00:02:15;7.50;;;4.80;;
18532;SDS011;9396;51.510;11.934;2023-08-21T00:04:42;12.13;;;5.43;;
18532;SDS011;9396;51.510;11.934;2023-08-21T00:07:08;7.10;;;5.03;;
18532;SDS011;9396;51.510;11.934;2023-08-21T00:09:36;6.43;;;5.10;;
18532;SDS011;9396;51.510;11.934;2023-08-21T00:12:03;14.43;;;5.13;;
18532;SDS011;9396;51.510;11.934;2023-08-21T00:14:30;9.97;;;4.90;;
18532;SDS011;9396;51.510;11.934;2023-08-21T00:16:58;6.90;;;4.80;;
18532;SDS011;9396;51.510;11.934;2023-08-21T00:19:25;7.10;;;5.10;;
18532;SDS011;9396;51.510;11.934;2023-08-21T00:21:52;5.83;;;4.67;;
18532;SDS011;9396;51.510;11.934;2023-08-21T00:24:19;6.17;;;4.73;;
18532;SDS011;9396;51.510;11.934;2023-08-21T00:26:45;8.67;;;5.03;;
18532;SDS011;9396;51.510;11.934;2023-08-21T00:29:12;10.13;;;5.40;;
18532;SDS011;9396;51.510;11.934;2023-08-21T00:31:38;8.83;;;5.40;;
18532;SDS011;9396;51.510;11.934;2023-08-21T00:34:06;8.63;;;5.40;;
18532;SDS011;9396;51.510;11.934;2023-08-21T00:36:33;9.73;;;5.40;;
18532;SDS011;9396;51.510;11.934;2023-08-21T00:39:00;12.97;;;5.43;;
18532;SDS011;9396;51.510;11.934;2023-08-21T00:41:27;11.77;;;5.67;;
18532;SDS011;9396;51.510;11.934;2023-08-21T00:43:53;6.47;;;5.30;;
18532;SDS011;9396;51.510;11.934;2023-08-21T00:46:20;7.60;;;5.20;;
18532;SDS011;9396;51.510;11.934;2023-08-21T00:48:46;9.60;;;5.30;;
18532;SDS011;9396;51.510;11.934;2023-08-21T00:51:15;5.83;;;5.23;;
18532;SDS011;9396;51.510;11.934;2023-08-21T00:53:44;8.53;;;5.30;;
18532;SDS011;9396;51.510;11.934;2023-08-21T00:56:10;7.33;;;5.13;;
18532;SDS011;9396;51.510;11.934;2023-08-21T00:58:37;7.47;;;5.63;;
18532;SDS011;9396;51.510;11.934;2023-08-21T01:01:04;6.67;;;5.03;;
18532;SDS011;9396;51.510;11.934;2023-08-21T01:03:31;9.10;;;5.40;;
18532;SDS011;9396;51.510;11.934;2023-08-21T01:05:57;7.43;;;4.60;;
18532;SDS011;9396;51.510;11.934;2023-08-21T01:08:28;9.90;;;5.10;;
18532;SDS011;9396;51.510;11.934;2023-08-21T01:11:02;8.40;;;4.93;;
18532;SDS011;9396;51.510;11.934;2023-08-21T01:13:39;11.27;;;5.10;;
18532;SDS011;9396;51.510;11.934;2023-08-21T01:16:14;9.60;;;5.10;;
18532;SDS011;9396;51.510;11.934;2023-08-21T01:18:42;6.27;;;4.90;;
18532;SDS011;9396;51.510;11.934;2023-08-21T01:21:11;7.20;;;4.87;;
18532;SDS011;9396;51.510;11.934;2023-08-21T01:23:40;6.07;;;5.33;;
18532;SDS011;9396;51.510;11.934;2023-08-21T01:26:08;5.93;;;4.70;;
18532;SDS011;9396;51.510;11.934;2023-08-21T01:28:35;8.80;;;5.13;;
18532;SDS011;9396;51.510;11.934;2023-08-21T01:31:03;7.47;;;4.53;;
18532;SDS011;9396;51.510;11.934;2023-08-21T01:33:35;7.00;;;5.37;;
18532;SDS011;9396;51.510;11.934;2023-08-21T01:36:12;7.33;;;4.57;;
18532;SDS011;9396;51.510;11.934;2023-08-21T01:38:40;5.10;;;4.37;;
18532;SDS011;9396;51.510;11.934;2023-08-21T01:41:08;8.50;;;4.70;;
18532;SDS011;9396;51.510;11.934;2023-08-21T01:43:34;8.63;;;5.07;;
18532;SDS011;9396;51.510;11.934;2023-08-21T01:46:01;8.77;;;4.30;;
18532;SDS011;9396;51.510;11.934;2023-08-21T01:48:28;6.63;;;4.50;;
18532;SDS011;9396;51.510;11.934;2023-08-21T01:50:55;8.17;;;4.50;;
18532;SDS011;9396;51.510;11.934;2023-08-21T01:53:21;8.57;;;5.20;;
18532;SDS011;9396;51.510;11.934;2023-08-21T01:55:49;7.37;;;4.67;;
18532;SDS011;9396;51.510;11.934;2023-08-21T01:58:16;8.80;;;4.90;;
18532;SDS011;9396;51.510;11.934;2023-08-21T02:00:45;7.47;;;4.50;;
18532;SDS011;9396;51.510;11.934;2023-08-21T02:03:12;7.83;;;4.80;;
18532;SDS011;9396;51.510;11.934;2023-08-21T02:05:38;8.40;;;4.80;;
18532;SDS011;9396;51.510;11.934;2023-08-21T02:08:06;8.23;;;4.90;;
18532;SDS011;9396;51.510;11.934;2023-08-21T02:10:33;7.03;;;5.10;;
18532;SDS011;9396;51.510;11.934;2023-08-21T02:13:01;14.53;;;5.67;;
18532;SDS011;9396;51.510;11.934;2023-08-21T02:18:50;6.93;;;4.73;;
18532;SDS011;9396;51.510;11.934;2023-08-21T02:21:16;6.03;;;4.80;;
18532;SDS011;9396;51.510;11.934;2023-08-21T02:23:43;11.23;;;4.83;;
18532;SDS011;9396;51.510;11.934;2023-08-21T02:26:09;6.37;;;4.80;;
18532;SDS011;9396;51.510;11.934;2023-08-21T02:28:37;8.10;;;4.90;;
18532;SDS011;9396;51.510;11.934;2023-08-21T02:31:04;10.47;;;5.37;;
18532;SDS011;9396;51.510;11.934;2023-08-21T02:33:31;6.23;;;4.70;;
18532;SDS011;9396;51.510;11.934;2023-08-21T02:35:57;8.43;;;5.33;;
18532;SDS011;9396;51.510;11.934;2023-08-21T02:38:24;8.27;;;4.90;;
18532;SDS011;9396;51.510;11.934;2023-08-21T02:40:50;8.93;;;5.37;;
18532;SDS011;9396;51.510;11.934;2023-08-21T02:43:17;8.17;;;5.83;;
18532;SDS011;9396;51.510;11.934;2023-08-21T02:45:45;7.30;;;5.50;;
18532;SDS011;9396;51.510;11.934;2023-08-21T02:48:12;7.50;;;4.90;;
18532;SDS011;9396;51.510;11.934;2023-08-21T02:50:38;7.17;;;5.20;;
18532;SDS011;9396;51.510;11.934;2023-08-21T02:53:06;8.97;;;5.50;;
18532;SDS011;9396;51.510;11.934;2023-08-21T02:55:33;8.00;;;5.07;;
18532;SDS011;9396;51.510;11.934;2023-08-21T02:58:00;7.70;;;5.60;;
18532;SDS011;9396;51.510;11.934;2023-08-21T03:00:27;11.73;;;5.43;;
18532;SDS011;9396;51.510;11.934;2023-08-21T03:02:55;8.83;;;5.27;;
18532;SDS011;9396;51.510;11.934;2023-08-21T03:05:21;9.10;;;5.00;;
18532;SDS011;9396;51.510;11.934;2023-08-21T03:07:48;9.23;;;5.57;;
18532;SDS011;9396;51.510;11.934;2023-08-21T03:10:15;10.57;;;5.70;;
18532;SDS011;9396;51.510;11.934;2023-08-21T03:12:41;7.30;;;5.77;;
18532;SDS011;9396;51.510;11.934;2023-08-21T03:15:08;6.57;;;5.53;;
18532;SDS011;9396;51.510;11.934;2023-08-21T03:17:35;11.17;;;5.87;;
18532;SDS011;9396;51.510;11.934;2023-08-21T03:20:03;7.83;;;5.40;;
18532;SDS011;9396;51.510;11.934;2023-08-21T03:22:31;7.70;;;5.77;;
18532;SDS011;9396;51.510;11.934;2023-08-21T03:24:57;10.37;;;5.37;;
18532;SDS011;9396;51.510;11.934;2023-08-21T03:27:24;8.63;;;5.33;;
18532;SDS011;9396;51.510;11.934;2023-08-21T03:29:51;11.30;;;5.73;;
18532;SDS011;9396;51.510;11.934;2023-08-21T03:32:17;7.47;;;5.57;;
18532;SDS011;9396;51.510;11.934;2023-08-21T03:34:44;11.93;;;6.17;;
18532;SDS011;9396;51.510;11.934;2023-08-21T03:37:12;8.87;;;6.40;;
18532;SDS011;9396;51.510;11.934;2023-08-21T03:43:01;9.50;;;5.57;;
18532;SDS011;9396;51.510;11.934;2023-08-21T03:45:27;9.20;;;5.77;;
18532;SDS011;9396;51.510;11.934;2023-08-21T03:47:54;9.03;;;6.17;;
18532;SDS011;9396;51.510;11.934;2023-08-21T03:50:21;9.47;;;6.53;;
18532;SDS011;9396;51.510;11.934;2023-08-21T03:52:49;9.37;;;5.90;;
18532;SDS011;9396;51.510;11.934;2023-08-21T03:55:15;10.57;;;5.97;;
18532;SDS011;9396;51.510;11.934;2023-08-21T03:57:42;10.33;;;5.90;;
18532;SDS011;9396;51.510;11.934;2023-08-21T04:00:09;8.43;;;6.07;;
18532;SDS011;9396;51.510;11.934;2023-08-21T04:02:37;9.20;;;5.97;;
18532;SDS011;9396;51.510;11.934;2023-08-21T04:05:03;9.83;;;5.63;;
18532;SDS011;9396;51.510;11.934;2023-08-21T04:07:30;7.77;;;5.93;;
18532;SDS011;9396;51.510;11.934;2023-08-21T04:09:58;6.70;;;6.10;;
18532;SDS011;9396;51.510;11.934;2023-08-21T04:12:25;8.67;;;5.97;;
18532;SDS011;9396;51.510;11.934;2023-08-21T04:14:51;7.07;;;6.37;;
18532;SDS011;9396;51.510;11.934;2023-08-21T04:17:20;8.90;;;6.13;;
18532;SDS011;9396;51.510;11.934;2023-08-21T04:19:47;7.17;;;5.53;;
18532;SDS011;9396;51.510;11.934;2023-08-21T04:22:14;8.47;;;6.03;;
18532;SDS011;9396;51.510;11.934;2023-08-21T04:24:41;12.33;;;6.37;;
18532;SDS011;9396;51.510;11.934;2023-08-21T04:27:09;7.27;;;6.03;;
18532;SDS011;9396;51.510;11.934;2023-08-21T04:29:36;16.37;;;6.90;;
18532;SDS011;9396;51.510;11.934;2023-08-21T04:32:03;10.87;;;5.90;;
18532;SDS011;9396;51.510;11.934;2023-08-21T04:34:29;11.07;;;6.50;;
18532;SDS011;9396;51.510;11.934;2023-08-21T04:36:58;11.50;;;7.23;;
18532;SDS011;9396;51.510;11.934;2023-08-21T04:39:25;8.10;;;5.87;;
18532;SDS011;9396;51.510;11.934;2023-08-21T04:41:51;9.97;;;5.80;;
18532;SDS011;9396;51.510;11.934;2023-08-21T04:44:19;9.20;;;6.10;;
18532;SDS011;9396;51.510;11.934;2023-08-21T04:46:47;19.73;;;6.30;;
18532;SDS011;9396;51.510;11.934;2023-08-21T04:49:15;10.77;;;6.07;;
18532;SDS011;9396;51.510;11.934;2023-08-21T04:51:41;9.50;;;6.20;;
18532;SDS011;9396;51.510;11.934;2023-08-21T04:54:08;10.20;;;5.87;;
18532;SDS011;9396;51.510;11.934;2023-08-21T04:56:35;7.37;;;5.83;;
18532;SDS011;9396;51.510;11.934;2023-08-21T04:59:02;9.07;;;5.77;;
18532;SDS011;9396;51.510;11.934;2023-08-21T05:01:30;6.97;;;5.87;;
18532;SDS011;9396;51.510;11.934;2023-08-21T05:03:56;8.30;;;5.23;;
18532;SDS011;9396;51.510;11.934;2023-08-21T05:06:23;10.07;;;5.40;;
18532;SDS011;9396;51.510;11.934;2023-08-21T05:08:49;8.40;;;5.53;;
18532;SDS011;9396;51.510;11.934;2023-08-21T05:11:16;11.77;;;5.40;;
18532;SDS011;9396;51.510;11.934;2023-08-21T05:13:43;7.20;;;5.53;;
18532;SDS011;9396;51.510;11.934;2023-08-21T05:16:09;8.47;;;5.33;;
18532;SDS011;9396;51.510;11.934;2023-08-21T05:18:37;8.83;;;5.47;;
18532;SDS011;9396;51.510;11.934;2023-08-21T05:21:04;8.33;;;5.40;;
18532;SDS011;9396;51.510;11.934;2023-08-21T05:23:31;14.57;;;6.30;;
18532;SDS011;9396;51.510;11.934;2023-08-21T05:25:57;6.13;;;4.97;;
18532;SDS011;9396;51.510;11.934;2023-08-21T05:28:24;11.17;;;5.20;;
18532;SDS011;9396;51.510;11.934;2023-08-21T05:30:50;11.60;;;5.47;;
18532;SDS011;9396;51.510;11.934;2023-08-21T05:33:17;11.03;;;5.10;;
18532;SDS011;9396;51.510;11.934;2023-08-21T05:35:45;9.93;;;5.53;;
18532;SDS011;9396;51.510;11.934;2023-08-21T05:38:11;11.33;;;5.50;;
18532;SDS011;9396;51.510;11.934;2023-08-21T05:40:39;6.23;;;5.20;;
18532;SDS011;9396;51.510;11.934;2023-08-21T05:43:06;7.23;;;4.80;;
18532;SDS011;9396;51.510;11.934;2023-08-21T05:45:33;7.77;;;4.90;;
18532;SDS011;9396;51.510;11.934;2023-08-21T05:47:59;11.53;;;4.97;;
18532;SDS011;9396;51.510;11.934;2023-08-21T05:50:26;9.17;;;5.17;;
18532;SDS011;9396;51.510;11.934;2023-08-21T05:52:54;7.77;;;4.77;;
18532;SDS011;9396;51.510;11.934;2023-08-21T05:55:23;8.43;;;5.33;;
18532;SDS011;9396;51.510;11.934;2023-08-21T05:57:49;7.87;;;4.87;;
18532;SDS011;9396;51.510;11.934;2023-08-21T06:00:16;15.00;;;5.03;;
18532;SDS011;9396;51.510;11.934;2023-08-21T06:02:43;12.40;;;4.93;;
18532;SDS011;9396;51.510;11.934;2023-08-21T06:05:10;7.50;;;4.80;;
18532;SDS011;9396;51.510;11.934;2023-08-21T06:07:36;6.57;;;4.37;;
18532;SDS011;9396;51.510;11.934;2023-08-21T06:10:07;10.87;;;5.00;;
18532;SDS011;9396;51.510;11.934;2023-08-21T06:12:36;5.80;;;4.73;;
18532;SDS011;9396;51.510;11.934;2023-08-21T06:15:03;14.53;;;5.07;;
18532;SDS011;9396;51.510;11.934;2023-08-21T06:17:30;9.53;;;4.20;;
18532;SDS011;9396;51.510;11.934;2023-08-21T06:19:57;8.63;;;4.30;;
18532;SDS011;9396;51.510;11.934;2023-08-21T06:22:24;8.30;;;4.40;;
18532;SDS011;9396;51.510;11.934;2023-08-21T06:24:51;6.33;;;4.30;;
18532;SDS011;9396;51.510;11.934;2023-08-21T06:27:19;11.90;;;4.60;;
18532;SDS011;9396;51.510;11.934;2023-08-21T06:29:46;5.47;;;4.20;;
18532;SDS011;9396;51.510;11.934;2023-08-21T06:32:12;7.10;;;4.40;;
18532;SDS011;9396;51.510;11.934;2023-08-21T06:34:39;6.33;;;4.10;;
18532;SDS011;9396;51.510;11.934;2023-08-21T06:37:05;8.87;;;4.33;;
18532;SDS011;9396;51.510;11.934;2023-08-21T06:39:33;7.27;;;3.80;;
18532;SDS011;9396;51.510;11.934;2023-08-21T06:42:00;9.90;;;4.63;;
18532;SDS011;9396;51.510;11.934;2023-08-21T06:44:28;23.30;;;6.27;;
18532;SDS011;9396;51.510;11.934;2023-08-21T06:46:55;12.13;;;5.30;;
18532;SDS011;9396;51.510;11.934;2023-08-21T06:49:21;8.60;;;4.87;;
18532;SDS011;9396;51.510;11.934;2023-08-21T06:51:48;9.10;;;5.90;;
18532;SDS011;9396;51.510;11.934;2023-08-21T06:54:15;13.57;;;5.70;;
18532;SDS011;9396;51.510;11.934;2023-08-21T06:56:43;7.50;;;5.43;;
18532;SDS011;9396;51.510;11.934;2023-08-21T06:59:09;11.17;;;6.03;;
18532;SDS011;9396;51.510;11.934;2023-08-21T07:01:37;9.37;;;5.90;;
18532;SDS011;9396;51.510;11.934;2023-08-21T07:04:04;10.60;;;5.60;;
18532;SDS011;9396;51.510;11.934;2023-08-21T07:06:30;7.63;;;5.60;;
18532;SDS011;9396;51.510;11.934;2023-08-21T07:08:57;10.53;;;5.90;;
18532;SDS011;9396;51.510;11.934;2023-08-21T07:11:24;13.47;;;6.20;;
18532;SDS011;9396;51.510;11.934;2023-08-21T07:17:14;10.70;;;6.00;;
18532;SDS011;9396;51.510;11.934;2023-08-21T07:19:40;9.53;;;6.50;;
18532;SDS011;9396;51.510;11.934;2023-08-21T07:22:07;11.00;;;6.97;;
18532;SDS011;9396;51.510;11.934;2023-08-21T07:24:33;12.97;;;6.93;;
18532;SDS011;9396;51.510;11.934;2023-08-21T07:27:00;9.83;;;7.00;;
18532;SDS011;9396;51.510;11.934;2023-08-21T07:29:27;8.87;;;7.07;;
18532;SDS011;9396;51.510;11.934;2023-08-21T07:31:53;11.60;;;6.60;;
18532;SDS011;9396;51.510;11.934;2023-08-21T07:34:21;16.20;;;7.23;;
18532;SDS011;9396;51.510;11.934;2023-08-21T07:36:48;10.23;;;7.00;;
18532;SDS011;9396;51.510;11.934;2023-08-21T07:39:15;11.47;;;7.70;;
18532;SDS011;9396;51.510;11.934;2023-08-21T07:41:41;10.77;;;7.47;;
18532;SDS011;9396;51.510;11.934;2023-08-21T07:44:08;8.17;;;6.67;;
18532;SDS011;9396;51.510;11.934;2023-08-21T07:46:34;12.43;;;7.07;;
18532;SDS011;9396;51.510;11.934;2023-08-21T07:49:01;10.60;;;6.27;;
18532;SDS011;9396;51.510;11.934;2023-08-21T07:51:29;10.17;;;6.57;;
18532;SDS011;9396;51.510;11.934;2023-08-21T07:53:56;9.97;;;6.40;;
18532;SDS011;9396;51.510;11.934;2023-08-21T07:56:22;7.50;;;6.20;;
18532;SDS011;9396;51.510;11.934;2023-08-21T07:58:49;10.60;;;6.10;;
18532;SDS011;9396;51.510;11.934;2023-08-21T08:01:15;8.83;;;6.10;;
18532;SDS011;9396;51.510;11.934;2023-08-21T08:03:42;7.83;;;4.97;;
18532;SDS011;9396;51.510;11.934;2023-08-21T08:06:09;9.70;;;6.10;;
18532;SDS011;9396;51.510;11.934;2023-08-21T08:08:37;8.00;;;5.10;;
18532;SDS011;9396;51.510;11.934;2023-08-21T08:11:04;7.97;;;4.23;;
18532;SDS011;9396;51.510;11.934;2023-08-21T08:13:31;8.77;;;4.63;;
18532;SDS011;9396;51.510;11.934;2023-08-21T08:15:58;6.70;;;4.33;;
18532;SDS011;9396;51.510;11.934;2023-08-21T08:18:24;11.13;;;4.20;;
18532;SDS011;9396;51.510;11.934;2023-08-21T08:20:51;11.57;;;4.30;;
18532;SDS011;9396;51.510;11.934;2023-08-21T08:23:18;11.27;;;3.93;;
18532;SDS011;9396;51.510;11.934;2023-08-21T08:25:47;7.27;;;4.30;;
18532;SDS011;9396;51.510;11.934;2023-08-21T08:28:13;6.57;;;3.70;;
18532;SDS011;9396;51.510;11.934;2023-08-21T08:30:40;8.20;;;3.57;;
18532;SDS011;9396;51.510;11.934;2023-08-21T08:33:06;7.60;;;3.80;;
18532;SDS011;9396;51.510;11.934;2023-08-21T08:35:33;6.07;;;3.43;;
18532;SDS011;9396;51.510;11.934;2023-08-21T08:38:00;8.43;;;3.80;;
18532;SDS011;9396;51.510;11.934;2023-08-21T08:40:27;8.93;;;3.70;;
18532;SDS011;9396;51.510;11.934;2023-08-21T08:42:55;7.50;;;3.73;;
18532;SDS011;9396;51.510;11.934;2023-08-21T08:45:23;5.67;;;3.63;;
18532;SDS011;9396;51.510;11.934;2023-08-21T08:47:56;8.93;;;3.80;;
18532;SDS011;9396;51.510;11.934;2023-08-21T08:50:25;7.40;;;3.03;;
18532;SDS011;9396;51.510;11.934;2023-08-21T08:52:54;8.37;;;3.67;;
18532;SDS011;9396;51.510;11.934;2023-08-21T08:55:21;5.33;;;3.50;;
18532;SDS011;9396;51.510;11.934;2023-08-21T08:57:48;6.07;;;2.87;;
18532;SDS011;9396;51.510;11.934;2023-08-21T09:00:17;8.87;;;2.70;;
18532;SDS011;9396;51.510;11.934;2023-08-21T09:02:45;3.83;;;2.60;;
18532;SDS011;9396;51.510;11.934;2023-08-21T09:05:11;4.60;;;2.50;;
18532;SDS011;9396;51.510;11.934;2023-08-21T09:07:38;5.17;;;1.93;;
18532;SDS011;9396;51.510;11.934;2023-08-21T09:10:05;4.03;;;1.90;;
18532;SDS011;9396;51.510;11.934;2023-08-21T09:12:39;5.57;;;1.87;;
18532;SDS011;9396;51.510;11.934;2023-08-21T09:18:28;5.40;;;1.77;;
18532;SDS011;9396;51.510;11.934;2023-08-21T09:20:55;4.97;;;2.13;;
18532;SDS011;9396;51.510;11.934;2023-08-21T09:23:21;4.97;;;2.10;;
18532;SDS011;9396;51.510;11.934;2023-08-21T09:25:48;4.23;;;2.00;;
18532;SDS011;9396;51.510;11.934;2023-08-21T09:28:18;4.47;;;1.83;;
18532;SDS011;9396;51.510;11.934;2023-08-21T09:30:47;3.07;;;1.97;;
18532;SDS011;9396;51.510;11.934;2023-08-21T09:33:16;8.00;;;2.07;;
18532;SDS011;9396;51.510;11.934;2023-08-21T09:35:45;3.20;;;1.80;;
18532;SDS011;9396;51.510;11.934;2023-08-21T09:38:11;4.57;;;2.20;;
18532;SDS011;9396;51.510;11.934;2023-08-21T09:40:39;5.53;;;2.13;;
18532;SDS011;9396;51.510;11.934;2023-08-21T09:43:08;4.33;;;2.10;;
18532;SDS011;9396;51.510;11.934;2023-08-21T09:45:36;7.13;;;2.50;;
18532;SDS011;9396;51.510;11.934;2023-08-21T09:48:03;5.40;;;2.20;;
18532;SDS011;9396;51.510;11.934;2023-08-21T09:50:30;7.07;;;2.07;;
18532;SDS011;9396;51.510;11.934;2023-08-21T09:52:58;3.20;;;1.30;;
18532;SDS011;9396;51.510;11.934;2023-08-21T09:55:25;4.20;;;1.53;;
18532;SDS011;9396;51.510;11.934;2023-08-21T09:57:54;4.57;;;2.00;;
18532;SDS011;9396;51.510;11.934;2023-08-21T10:00:26;4.10;;;1.63;;
18532;SDS011;9396;51.510;11.934;2023-08-21T10:02:54;5.27;;;1.57;;
18532;SDS011;9396;51.510;11.934;2023-08-21T10:05:27;6.10;;;2.03;;
18532;SDS011;9396;51.510;11.934;2023-08-21T10:07:55;2.40;;;1.83;;
18532;SDS011;9396;51.510;11.934;2023-08-21T10:10:23;6.67;;;2.37;;
18532;SDS011;9396;51.510;11.934;2023-08-21T10:12:50;4.33;;;2.10;;
18532;SDS011;9396;51.510;11.934;2023-08-21T10:15:17;6.23;;;2.20;;
18532;SDS011;9396;51.510;11.934;2023-08-21T10:17:44;3.73;;;1.87;;
18532;SDS011;9396;51.510;11.934;2023-08-21T10:20:11;4.93;;;1.67;;
18532;SDS011;9396;51.510;11.934;2023-08-21T10:22:42;4.97;;;1.87;;
18532;SDS011;9396;51.510;11.934;2023-08-21T10:25:14;5.87;;;1.83;;
18532;SDS011;9396;51.510;11.934;2023-08-21T10:34:00;4.37;;;2.10;;
18532;SDS011;9396;51.510;11.934;2023-08-21T10:36:41;3.43;;;1.97;;
18532;SDS011;9396;51.510;11.934;2023-08-21T10:39:31;5.40;;;1.30;;
18532;SDS011;9396;51.510;11.934;2023-08-21T10:42:01;2.37;;;1.70;;
18532;SDS011;9396;51.510;11.934;2023-08-21T10:47:19;6.00;;;2.00;;
18532;SDS011;9396;51.510;11.934;2023-08-21T10:49:49;2.73;;;2.00;;
18532;SDS011;9396;51.510;11.934;2023-08-21T10:52:20;3.37;;;1.90;;
18532;SDS011;9396;51.510;11.934;2023-08-21T10:54:49;7.03;;;1.87;;
18532;SDS011;9396;51.510;11.934;2023-08-21T10:57:16;2.53;;;1.30;;
18532;SDS011;9396;51.510;11.934;2023-08-21T10:59:53;4.43;;;1.90;;
18532;SDS011;9396;51.510;11.934;2023-08-21T11:02:23;3.10;;;2.40;;
18532;SDS011;9396;51.510;11.934;2023-08-21T11:08:13;7.77;;;2.10;;
18532;SDS011;9396;51.510;11.934;2023-08-21T11:10:39;5.23;;;2.20;;
18532;SDS011;9396;51.510;11.934;2023-08-21T11:13:07;2.93;;;1.80;;
18532;SDS011;9396;51.510;11.934;2023-08-21T11:15:34;6.33;;;2.17;;
18532;SDS011;9396;51.510;11.934;2023-08-21T11:18:02;2.90;;;1.77;;
18532;SDS011;9396;51.510;11.934;2023-08-21T11:20:30;4.00;;;2.10;;
18532;SDS011;9396;51.510;11.934;2023-08-21T11:22:57;4.83;;;2.00;;
18532;SDS011;9396;51.510;11.934;2023-08-21T11:25:24;3.83;;;2.13;;
18532;SDS011;9396;51.510;11.934;2023-08-21T11:27:52;2.60;;;1.90;;
18532;SDS011;9396;51.510;11.934;2023-08-21T11:30:21;4.83;;;1.80;;
18532;SDS011;9396;51.510;11.934;2023-08-21T11:32:48;6.30;;;2.30;;
18532;SDS011;9396;51.510;11.934;2023-08-21T11:35:16;3.73;;;1.90;;
18532;SDS011;9396;51.510;11.934;2023-08-21T11:37:44;8.20;;;2.33;;
18532;SDS011;9396;51.510;11.934;2023-08-21T11:40:12;5.30;;;2.30;;
18532;SDS011;9396;51.510;11.934;2023-08-21T11:42:39;4.97;;;2.43;;
18532;SDS011;9396;51.510;11.934;2023-08-21T11:45:06;3.43;;;2.30;;
18532;SDS011;9396;51.510;11.934;2023-08-21T11:47:34;3.43;;;2.20;;
18532;SDS011;9396;51.510;11.934;2023-08-21T11:50:04;4.17;;;2.10;;
18532;SDS011;9396;51.510;11.934;2023-08-21T11:52:36;3.33;;;2.10;;
18532;SDS011;9396;51.510;11.934;2023-08-21T11:55:07;5.90;;;2.10;;
18532;SDS011;9396;51.510;11.934;2023-08-21T11:57:34;3.30;;;2.10;;
18532;SDS011;9396;51.510;11.934;2023-08-21T12:00:01;3.50;;;2.13;;
18532;SDS011;9396;51.510;11.934;2023-08-21T12:02:29;4.40;;;2.20;;
18532;SDS011;9396;51.510;11.934;2023-08-21T12:05:00;4.23;;;2.20;;
18532;SDS011;9396;51.510;11.934;2023-08-21T12:07:30;3.80;;;1.93;;
18532;SDS011;9396;51.510;11.934;2023-08-21T12:09:58;3.23;;;2.30;;
18532;SDS011;9396;51.510;11.934;2023-08-21T12:12:24;3.23;;;2.33;;
18532;SDS011;9396;51.510;11.934;2023-08-21T12:14:51;5.63;;;2.27;;
18532;SDS011;9396;51.510;11.934;2023-08-21T12:17:18;3.27;;;2.13;;
18532;SDS011;9396;51.510;11.934;2023-08-21T12:19:45;4.50;;;2.37;;
18532;SDS011;9396;51.510;11.934;2023-08-21T12:22:11;4.10;;;2.10;;
18532;SDS011;9396;51.510;11.934;2023-08-21T12:28:01;6.03;;;2.60;;
18532;SDS011;9396;51.510;11.934;2023-08-21T12:30:28;5.40;;;2.83;;
18532;SDS011;9396;51.510;11.934;2023-08-21T12:32:54;3.87;;;2.50;;
18532;SDS011;9396;51.510;11.934;2023-08-21T12:35:21;3.73;;;2.10;;
18532;SDS011;9396;51.510;11.934;2023-08-21T12:37:47;5.97;;;2.20;;
18532;SDS011;9396;51.510;11.934;2023-08-21T12:40:14;3.50;;;2.30;;
18532;SDS011;9396;51.510;11.934;2023-08-21T12:42:41;4.23;;;2.60;;
18532;SDS011;9396;51.510;11.934;2023-08-21T12:45:09;7.93;;;2.50;;
18532;SDS011;9396;51.510;11.934;2023-08-21T12:47:37;4.67;;;2.63;;
18532;SDS011;9396;51.510;11.934;2023-08-21T12:50:04;6.87;;;2.67;;
18532;SDS011;9396;51.510;11.934;2023-08-21T12:52:31;5.80;;;2.70;;
18532;SDS011;9396;51.510;11.934;2023-08-21T12:54:58;4.83;;;2.63;;
18532;SDS011;9396;51.510;11.934;2023-08-21T12:57:28;3.43;;;2.20;;
18532;SDS011;9396;51.510;11.934;2023-08-21T12:59:54;10.47;;;2.60;;
18532;SDS011;9396;51.510;11.934;2023-08-21T13:02:22;7.13;;;2.63;;
18532;SDS011;9396;51.510;11.934;2023-08-21T13:04:49;3.20;;;2.40;;
18532;SDS011;9396;51.510;11.934;2023-08-21T13:07:16;3.70;;;2.53;;
18532;SDS011;9396;51.510;11.934;2023-08-21T13:09:43;6.70;;;2.73;;
18532;SDS011;9396;51.510;11.934;2023-08-21T13:12:09;6.67;;;2.73;;
18532;SDS011;9396;51.510;11.934;2023-08-21T13:14:36;3.33;;;2.33;;
18532;SDS011;9396;51.510;11.934;2023-08-21T13:17:02;5.80;;;2.60;;
18532;SDS011;9396;51.510;11.934;2023-08-21T13:19:31;4.63;;;2.77;;
18532;SDS011;9396;51.510;11.934;2023-08-21T13:21:58;7.13;;;2.60;;
18532;SDS011;9396;51.510;11.934;2023-08-21T13:24:24;5.07;;;2.47;;
18532;SDS011;9396;51.510;11.934;2023-08-21T13:26:53;5.53;;;2.33;;
18532;SDS011;9396;51.510;11.934;2023-08-21T13:29:19;4.47;;;2.90;;
18532;SDS011;9396;51.510;11.934;2023-08-21T13:31:46;6.33;;;2.67;;
18532;SDS011;9396;51.510;11.934;2023-08-21T13:34:13;4.90;;;2.30;;
18532;SDS011;9396;51.510;11.934;2023-08-21T13:36:41;4.50;;;2.50;;
18532;SDS011;9396;51.510;11.934;2023-08-21T13:39:08;6.70;;;2.87;;
18532;SDS011;9396;51.510;11.934;2023-08-21T13:41:36;3.57;;;2.50;;
18532;SDS011;9396;51.510;11.934;2023-08-21T13:44:02;3.57;;;2.43;;
18532;SDS011;9396;51.510;11.934;2023-08-21T13:46:29;3.20;;;2.63;;
18532;SDS011;9396;51.510;11.934;2023-08-21T13:48:56;4.47;;;2.43;;
18532;SDS011;9396;51.510;11.934;2023-08-21T13:51:23;3.87;;;2.50;;
18532;SDS011;9396;51.510;11.934;2023-08-21T13:53:51;4.53;;;2.30;;
18532;SDS011;9396;51.510;11.934;2023-08-21T13:56:17;4.17;;;2.40;;
18532;SDS011;9396;51.510;11.934;2023-08-21T13:58:44;3.40;;;2.03;;
18532;SDS011;9396;51.510;11.934;2023-08-21T14:01:11;2.73;;;2.17;;
18532;SDS011;9396;51.510;11.934;2023-08-21T14:03:37;3.50;;;2.03;;
18532;SDS011;9396;51.510;11.934;2023-08-21T14:09:27;3.63;;;1.97;;
18532;SDS011;9396;51.510;11.934;2023-08-21T14:11:54;3.60;;;2.17;;
18532;SDS011;9396;51.510;11.934;2023-08-21T14:17:42;4.37;;;2.30;;
18532;SDS011;9396;51.510;11.934;2023-08-21T14:20:09;4.47;;;2.20;;
18532;SDS011;9396;51.510;11.934;2023-08-21T14:22:36;12.40;;;2.40;;
18532;SDS011;9396;51.510;11.934;2023-08-21T14:25:04;3.37;;;2.33;;
18532;SDS011;9396;51.510;11.934;2023-08-21T14:27:32;3.13;;;1.97;;
18532;SDS011;9396;51.510;11.934;2023-08-21T14:29:58;4.93;;;2.10;;
18532;SDS011;9396;51.510;11.934;2023-08-21T14:32:25;5.13;;;2.30;;
18532;SDS011;9396;51.510;11.934;2023-08-21T14:34:52;3.87;;;1.90;;
18532;SDS011;9396;51.510;11.934;2023-08-21T14:37:19;6.33;;;2.23;;
18532;SDS011;9396;51.510;11.934;2023-08-21T14:39:48;4.20;;;2.20;;
18532;SDS011;9396;51.510;11.934;2023-08-21T14:42:17;5.43;;;2.20;;
18532;SDS011;9396;51.510;11.934;2023-08-21T14:44:44;2.67;;;2.17;;
18532;SDS011;9396;51.510;11.934;2023-08-21T14:47:10;4.07;;;2.00;;
18532;SDS011;9396;51.510;11.934;2023-08-21T14:49:37;3.33;;;1.93;;
18532;SDS011;9396;51.510;11.934;2023-08-21T14:52:04;3.97;;;2.10;;
18532;SDS011;9396;51.510;11.934;2023-08-21T14:54:32;5.37;;;2.67;;
18532;SDS011;9396;51.510;11.934;2023-08-21T14:56:59;4.70;;;1.80;;
18532;SDS011;9396;51.510;11.934;2023-08-21T14:59:27;3.87;;;2.33;;
18532;SDS011;9396;51.510;11.934;2023-08-21T15:01:54;3.67;;;2.23;;
18532;SDS011;9396;51.510;11.934;2023-08-21T15:04:21;7.17;;;2.00;;
18532;SDS011;9396;51.510;11.934;2023-08-21T15:10:09;7.87;;;2.07;;
18532;SDS011;9396;51.510;11.934;2023-08-21T15:12:36;7.73;;;2.40;;
18532;SDS011;9396;51.510;11.934;2023-08-21T15:15:05;4.57;;;2.57;;
18532;SDS011;9396;51.510;11.934;2023-08-21T15:17:32;4.00;;;1.90;;
18532;SDS011;9396;51.510;11.934;2023-08-21T15:19:59;6.13;;;2.20;;
18532;SDS011;9396;51.510;11.934;2023-08-21T15:22:26;2.93;;;1.90;;
18532;SDS011;9396;51.510;11.934;2023-08-21T15:24:52;4.70;;;2.10;;
18532;SDS011;9396;51.510;11.934;2023-08-21T15:27:19;4.03;;;2.40;;